createdAt,value
2022-11-02T00:00:19.152Z,100460.13
2022-11-02T00:02:47.132Z,100469.28
2022-11-02T00:05:15.226Z,100469.91
2022-11-02T00:07:43.313Z,100476.31
2022-11-02T00:10:11.487Z,100477.38
2022-11-02T00:12:39.532Z,100476.31
2022-11-02T00:15:09.041Z,100470.09
2022-11-02T00:17:38.346Z,100475.50
2022-11-02T00:20:06.924Z,100473.03
2022-11-02T00:22:34.827Z,100471.97
2022-11-02T00:25:03.996Z,100473.03
2022-11-02T00:27:32.247Z,100470.31
2022-11-02T00:30:00.288Z,100474.91
2022-11-02T00:32:28.347Z,100483.00
2022-11-02T00:34:57.749Z,100477.81
2022-11-02T00:37:25.691Z,100480.50
2022-11-02T00:39:53.719Z,100483.19
2022-11-02T00:42:21.749Z,100485.91
2022-11-02T00:44:49.683Z,100486.09
2022-11-02T00:47:17.659Z,100487.97
2022-11-02T00:49:45.654Z,100491.72
2022-11-02T00:52:15.057Z,100488.41
2022-11-02T00:54:43.104Z,100491.94
2022-11-02T00:57:11.113Z,100488.41
2022-11-02T00:59:39.165Z,100495.88
2022-11-02T01:02:07.215Z,100495.88
2022-11-02T01:04:35.286Z,100502.34
2022-11-02T01:07:03.400Z,100506.06
2022-11-02T01:09:33.256Z,100506.06
2022-11-02T01:12:01.266Z,100520.59
2022-11-02T01:14:29.149Z,100514.16
2022-11-02T01:16:58.006Z,100516.03
2022-11-02T01:19:26.144Z,100512.50
2022-11-02T01:21:54.146Z,100517.91
2022-11-02T01:24:22.075Z,100518.72
2022-11-02T01:26:52.962Z,100519.78
2022-11-02T01:29:20.963Z,100527.88
2022-11-02T01:31:49.566Z,100524.38
2022-11-02T01:34:17.791Z,100525.38
2022-11-02T01:36:46.075Z,100527.06
2022-11-02T01:39:14.273Z,100528.91
2022-11-02T01:41:42.387Z,100530.78
2022-11-02T01:44:30.035Z,100537.41
2022-11-02T01:47:00.614Z,100538.25
2022-11-02T01:49:28.575Z,100534.94
2022-11-02T01:51:58.897Z,100529.53
2022-11-02T01:54:27.853Z,100528.72
2022-11-02T01:56:58.809Z,100531.59
2022-11-02T01:59:36.582Z,100537.19
2022-11-02T02:02:05.963Z,100526.63
2022-11-02T02:04:35.256Z,100528.50
2022-11-02T02:07:03.286Z,100530.34
2022-11-02T02:09:31.547Z,100527.88
2022-11-02T02:11:59.517Z,100520.81
2022-11-02T02:14:28.810Z,100524.56
2022-11-02T02:17:14.535Z,100521.03
2022-11-02T02:19:45.141Z,100522.69
2022-11-02T02:22:48.635Z,100518.97
2022-11-02T02:25:43.918Z,100527.88
2022-11-02T02:28:15.823Z,100519.97
2022-11-02T02:30:46.119Z,100530.78
2022-11-02T02:33:15.458Z,100526.22
2022-11-02T02:35:44.195Z,100524.56
2022-11-02T02:38:13.161Z,100525.38
2022-11-02T02:40:42.839Z,100526.44
2022-11-02T02:43:11.757Z,100533.47
2022-11-02T02:45:41.569Z,100529.13
2022-11-02T02:48:11.648Z,100531.00
2022-11-02T02:50:42.055Z,100533.91
2022-11-02T02:53:09.982Z,100531.19
2022-11-02T02:55:39.259Z,100544.06
2022-11-02T02:58:07.509Z,100542.44
2022-11-02T03:00:36.198Z,100536.41
2022-11-02T03:03:06.363Z,100544.50
2022-11-02T03:05:35.308Z,100542.84
2022-11-02T03:08:05.166Z,100536.41
2022-11-02T03:10:53.079Z,100542.84
2022-11-02T03:13:34.249Z,100537.88
2022-11-02T03:16:04.363Z,100534.31
2022-11-02T03:18:37.752Z,100551.38
2022-11-02T03:21:08.298Z,100550.75
2022-11-02T03:23:38.512Z,100550.75
2022-11-02T03:26:08.530Z,100548.03
2022-11-02T03:28:50.249Z,100558.59
2022-11-02T03:31:20.132Z,100562.16
2022-11-02T03:33:53.089Z,100563.81
2022-11-02T03:36:21.992Z,100564.84
2022-11-02T03:38:51.716Z,100564.84
2022-11-02T03:41:20.008Z,100562.16
2022-11-02T03:43:47.939Z,100569.41
2022-11-02T03:46:15.891Z,100571.28
2022-11-02T03:48:45.210Z,100573.97
2022-11-02T03:51:15.941Z,100566.94
2022-11-02T03:53:45.850Z,100564.22
2022-11-02T03:56:18.390Z,100566.09
2022-11-02T03:58:46.350Z,100566.94
2022-11-02T04:01:14.419Z,100560.72
2022-11-02T04:03:44.231Z,100556.56
2022-11-02T04:06:12.944Z,100551.16
2022-11-02T04:08:43.567Z,100564.84
2022-11-02T04:11:28.951Z,100552.41
2022-11-02T04:14:14.256Z,100558.63
2022-11-02T04:16:42.239Z,100563.38
2022-11-02T04:19:27.610Z,100560.69
2022-11-02T04:22:13.222Z,100567.13
2022-11-02T04:25:00.399Z,100572.53
2022-11-02T04:27:28.777Z,100578.13
2022-11-02T04:29:56.759Z,100578.13
2022-11-02T04:32:38.570Z,100581.66
2022-11-02T04:35:07.471Z,100585.19
2022-11-02T04:37:57.223Z,100582.69
2022-11-02T04:40:26.625Z,100582.69
2022-11-02T04:42:54.537Z,100577.31
2022-11-02T04:45:22.570Z,100574.59
2022-11-02T04:47:50.518Z,100578.34
2022-11-02T04:50:18.439Z,100588.09
2022-11-02T04:52:46.392Z,100583.75
2022-11-02T04:55:14.335Z,100581.88
2022-11-02T04:57:47.111Z,100586.44
2022-11-02T05:00:16.598Z,100595.56
2022-11-02T05:02:44.642Z,100598.47
2022-11-02T05:05:12.868Z,100606.34
2022-11-02T05:07:40.907Z,100604.69
2022-11-02T05:10:09.244Z,100612.78
2022-11-02T05:12:37.211Z,100608.41
2022-11-02T05:15:07.493Z,100613.81
2022-11-02T05:17:35.405Z,100617.56
2022-11-02T05:20:04.940Z,100628.34
2022-11-02T05:22:32.899Z,100618.59
2022-11-02T05:25:00.775Z,100619.63
2022-11-02T05:27:28.916Z,100622.31
2022-11-02T05:29:56.901Z,100622.31
2022-11-02T05:32:26.271Z,100626.25
2022-11-02T05:34:54.222Z,100628.78
2022-11-02T05:37:22.238Z,100627.94
2022-11-02T05:39:50.694Z,100637.91
2022-11-02T05:42:18.946Z,100630.84
2022-11-02T05:44:46.916Z,100639.97
2022-11-02T05:47:14.913Z,100638.28
2022-11-02T05:49:44.255Z,100638.28
2022-11-02T05:52:12.258Z,100636.66
2022-11-02T05:54:40.213Z,100648.25
2022-11-02T05:57:08.254Z,100653.66
2022-11-02T05:59:36.319Z,100663.44
2022-11-02T06:02:04.391Z,100657.19
2022-11-02T06:04:32.544Z,100663.63
2022-11-02T06:07:01.847Z,100669.00
2022-11-02T06:09:29.791Z,100680.84
2022-11-02T06:11:57.716Z,100684.38
2022-11-02T06:14:25.710Z,100688.94
2022-11-02T06:16:53.666Z,100692.88
2022-11-02T06:19:21.607Z,100700.75
2022-11-02T06:21:49.541Z,100698.28
2022-11-02T06:24:18.934Z,100711.75
2022-11-02T06:26:47.087Z,100705.50
2022-11-02T06:29:15.091Z,100710.06
2022-11-02T06:31:43.094Z,100710.91
2022-11-02T06:36:38.685Z,100716.72
2022-11-02T06:39:06.589Z,100716.94
2022-11-02T06:41:35.946Z,100732.91
2022-11-02T06:44:04.043Z,100722.94
2022-11-02T06:46:32.411Z,100723.56
2022-11-02T06:49:00.570Z,100728.78
2022-11-02T06:51:28.610Z,100729.59
2022-11-02T06:53:56.744Z,100738.09
2022-11-02T06:56:24.770Z,100737.91
2022-11-02T06:58:54.176Z,100735.84
2022-11-02T07:01:22.276Z,100740.00
2022-11-02T07:03:50.417Z,100735.44
2022-11-02T07:06:18.365Z,100737.09
2022-11-02T07:08:46.247Z,100732.53
2022-11-02T07:11:15.930Z,100741.66
2022-11-02T07:13:44.161Z,100738.78
2022-11-02T07:16:13.519Z,100747.88
2022-11-02T07:18:41.639Z,100743.53
2022-11-02T07:21:11.558Z,100749.75
2022-11-02T07:23:39.549Z,100747.06
2022-11-02T07:26:07.533Z,100748.72
2022-11-02T07:28:36.907Z,100754.09
2022-11-02T07:31:05.472Z,100757.84
2022-11-02T07:33:34.804Z,100757.03
2022-11-02T07:36:04.513Z,100765.31
2022-11-02T07:38:32.485Z,100762.63
2022-11-02T07:41:00.424Z,100768.00
2022-11-02T07:43:29.176Z,100779.63
2022-11-02T07:45:57.312Z,100781.50
2022-11-02T07:48:25.254Z,100780.69
2022-11-02T07:50:54.663Z,100787.53
2022-11-02T07:53:22.656Z,100791.88
2022-11-02T07:55:50.572Z,100783.78
2022-11-02T07:58:18.481Z,100791.88
2022-11-02T08:00:46.622Z,100791.06
2022-11-02T08:03:15.562Z,100784.00
2022-11-02T08:05:44.027Z,100783.19
2022-11-02T08:08:14.706Z,100783.19
2022-11-02T08:10:42.715Z,100781.50
2022-11-02T08:13:10.893Z,100781.50
2022-11-02T08:15:39.326Z,100779.03
2022-11-02T08:18:08.570Z,100786.28
2022-11-02T08:20:37.249Z,100786.47
2022-11-02T08:23:05.434Z,100782.97
2022-11-02T08:25:35.025Z,100780.25
2022-11-02T08:28:03.421Z,100778.56
2022-11-02T08:30:32.247Z,100775.28
2022-11-02T08:33:03.806Z,100769.88
2022-11-02T08:35:31.795Z,100767.38
2022-11-02T08:38:00.055Z,100764.84
2022-11-02T08:40:28.206Z,100769.25
2022-11-02T08:43:00.611Z,100770.66
2022-11-02T08:45:32.304Z,100769.66
2022-11-02T08:48:07.430Z,100770.25
2022-11-02T08:50:35.820Z,100770.25
2022-11-02T08:53:04.680Z,100762.78
2022-11-02T08:55:32.758Z,100776.94
2022-11-02T08:58:02.444Z,100767.78
2022-11-02T09:00:31.616Z,100774.88
2022-11-02T09:03:00.704Z,100775.50
2022-11-02T09:05:29.415Z,100771.75
2022-11-02T09:07:58.724Z,100774.03
2022-11-02T09:10:26.939Z,100769.28
2022-11-02T09:12:54.851Z,100761.81
2022-11-02T09:15:24.308Z,100764.53
2022-11-02T09:17:52.324Z,100764.13
2022-11-02T09:20:20.406Z,100760.38
2022-11-02T09:22:48.378Z,100766.59
2022-11-02T09:25:16.728Z,100769.09
2022-11-02T09:27:44.760Z,100762.66
2022-11-02T09:30:14.102Z,100764.34
2022-11-02T09:32:43.542Z,100757.06
2022-11-02T09:35:12.427Z,100761.22
2022-11-02T09:37:40.401Z,100761.22
2022-11-02T09:40:09.288Z,100748.38
2022-11-02T09:42:40.927Z,100749.19
2022-11-02T09:45:12.602Z,100746.50
2022-11-02T09:50:38.596Z,100745.25
2022-11-02T09:53:06.982Z,100748.78
2022-11-02T09:55:36.609Z,100731.75
2022-11-02T09:58:07.339Z,100726.16
2022-11-02T10:00:38.096Z,100718.91
2022-11-02T10:03:12.475Z,100731.34
2022-11-02T10:05:42.582Z,100727.59
2022-11-02T10:08:21.215Z,100725.53
2022-11-02T10:10:54.477Z,100731.75
2022-11-02T10:13:27.278Z,100726.38
2022-11-02T10:15:57.030Z,100735.28
2022-11-02T10:18:28.069Z,100740.50
2022-11-02T10:20:57.600Z,100755.88
2022-11-02T10:23:28.650Z,100745.69
2022-11-02T10:25:56.641Z,100732.19
2022-11-02T10:28:27.680Z,100740.06
2022-11-02T10:30:55.878Z,100737.38
2022-11-02T10:33:28.553Z,100742.59
2022-11-02T10:36:23.970Z,100734.69
2022-11-02T10:38:59.418Z,100722.63
2022-11-02T10:41:44.563Z,100735.31
2022-11-02T10:44:20.094Z,100738.84
2022-11-02T10:46:57.556Z,100725.34
2022-11-02T10:49:41.851Z,100718.94
2022-11-02T10:52:11.195Z,100709.78
2022-11-02T10:54:39.886Z,100704.38
2022-11-02T10:57:10.797Z,100704.19
2022-11-02T10:59:38.738Z,100699.59
2022-11-02T11:02:13.387Z,100713.94
2022-11-02T11:04:42.847Z,100704.19
2022-11-02T11:07:14.995Z,100706.66
2022-11-02T11:09:48.170Z,100707.47
2022-11-02T11:12:20.697Z,100703.97
2022-11-02T11:20:33.275Z,100708.78
2022-11-02T11:23:17.650Z,100706.06
2022-11-02T11:25:47.074Z,100698.59
2022-11-02T11:28:23.425Z,100697.75
2022-11-02T11:30:59.893Z,100689.66
2022-11-02T11:33:28.236Z,100694.03
2022-11-02T11:35:57.661Z,100692.34
2022-11-02T11:38:27.910Z,100686.75
2022-11-02T11:40:57.312Z,100681.16
2022-11-02T11:43:26.361Z,100684.06
2022-11-02T11:46:03.722Z,100679.47
2022-11-02T11:48:36.501Z,100691.97
2022-11-02T11:51:06.154Z,100693.63
2022-11-02T11:53:35.546Z,100690.91
2022-11-02T11:56:03.652Z,100689.25
2022-11-02T11:58:31.800Z,100680.94
2022-11-02T12:01:09.318Z,100678.25
2022-11-02T12:03:51.759Z,100670.97
2022-11-02T12:06:29.027Z,100668.25
2022-11-02T12:09:04.104Z,100662.88
2022-11-02T12:11:38.899Z,100659.34
2022-11-02T12:14:15.784Z,100667.88
2022-11-02T12:17:02.469Z,100651.66
2022-11-02T12:19:34.354Z,100658.91
2022-11-02T12:22:07.147Z,100656.03
2022-11-02T12:25:05.491Z,100661.22
2022-11-02T12:27:38.804Z,100649.56
2022-11-02T12:30:18.313Z,100649.56
2022-11-02T12:33:26.741Z,100657.47
2022-11-02T12:36:05.312Z,100647.72
2022-11-02T12:38:45.889Z,100648.53
2022-11-02T12:41:14.470Z,100640.44
2022-11-02T12:43:43.684Z,100646.66
2022-11-02T12:46:38.038Z,100645.63
2022-11-02T12:49:19.501Z,100646.66
2022-11-02T12:51:49.642Z,100647.50
2022-11-02T12:54:20.842Z,100645.41
2022-11-02T12:56:49.893Z,100647.50
2022-11-02T12:59:21.054Z,100638.34
2022-11-02T13:01:52.795Z,100643.75
2022-11-02T13:04:26.093Z,100646.44
2022-11-02T13:06:59.201Z,100641.91
2022-11-02T13:09:31.489Z,100650.81
2022-11-02T13:12:01.900Z,100651.66
2022-11-02T13:14:31.372Z,100650.81
2022-11-02T13:17:02.906Z,100653.28
2022-11-02T13:19:33.346Z,100654.16
2022-11-02T13:22:01.445Z,100649.78
2022-11-02T13:24:32.346Z,100654.16
2022-11-02T13:27:13.847Z,100643.34
2022-11-02T13:29:46.219Z,100657.69
2022-11-02T13:32:19.029Z,100662.03
2022-11-02T13:34:48.001Z,100656.63
2022-11-02T13:37:18.912Z,100656.84
2022-11-02T13:39:49.523Z,100657.44
2022-11-02T13:42:46.191Z,100657.44
2022-11-02T13:45:35.729Z,100657.44
2022-11-02T13:48:30.323Z,100660.16
2022-11-02T13:50:59.568Z,100655.81
2022-11-02T13:53:29.017Z,100648.53
2022-11-02T13:56:00.274Z,100653.09
2022-11-02T13:58:29.065Z,100649.34
2022-11-02T14:01:01.013Z,100646.66
2022-11-02T14:03:29.561Z,100660.16
2022-11-02T14:05:59.039Z,100662.84
2022-11-02T14:08:32.192Z,100661.84
2022-11-02T14:11:07.312Z,100658.31
2022-11-02T14:14:08.803Z,100659.13
2022-11-02T14:16:45.750Z,100663.72
2022-11-02T14:19:23.931Z,100664.53
2022-11-02T14:22:10.690Z,100653.72
2022-11-02T14:24:57.415Z,100653.72
2022-11-02T14:27:32.998Z,100655.38
2022-11-02T14:30:01.033Z,100662.66
2022-11-02T14:32:44.128Z,100658.06
2022-11-02T14:35:30.721Z,100653.72
2022-11-02T14:38:20.169Z,100655.38
2022-11-02T14:40:52.759Z,100651.03
2022-11-02T14:43:43.456Z,100655.38
2022-11-02T14:46:16.837Z,100658.06
2022-11-02T14:48:46.413Z,100664.53
2022-11-02T14:51:17.658Z,100660.78
2022-11-02T14:53:45.729Z,100666.19
2022-11-02T14:56:14.399Z,100667.00
2022-11-02T14:58:50.677Z,100666.19
2022-11-02T15:01:20.034Z,100671.59
2022-11-02T15:03:48.445Z,100662.47
2022-11-02T15:06:19.777Z,100663.47
2022-11-02T15:08:52.774Z,100661.59
2022-11-02T15:11:46.343Z,100667.88
2022-11-02T15:14:51.258Z,100674.09
2022-11-02T15:17:56.638Z,100674.91
2022-11-02T15:20:32.564Z,100676.78
2022-11-02T15:23:29.957Z,100673.25
2022-11-02T15:26:00.933Z,100678.66
2022-11-02T15:28:30.979Z,100684.88
2022-11-02T15:31:00.855Z,100691.94
2022-11-02T15:33:37.045Z,100685.72
2022-11-02T15:36:05.766Z,100696.53
2022-11-02T15:38:39.918Z,100704.63
2022-11-02T15:41:17.315Z,100707.31
2022-11-02T15:43:59.374Z,100705.44
2022-11-02T15:46:37.757Z,100710.84
2022-11-02T15:49:12.848Z,100718.94
2022-11-02T15:51:44.146Z,100720.81
2022-11-02T15:54:18.763Z,100717.31
2022-11-02T15:56:48.818Z,100722.72
2022-11-02T15:59:31.199Z,100723.72
2022-11-02T16:02:05.110Z,100723.53
2022-11-02T16:04:34.542Z,100724.59
2022-11-02T16:07:05.805Z,100729.13
2022-11-02T16:09:35.512Z,100735.38
2022-11-02T16:12:05.831Z,100735.38
2022-11-02T16:14:33.968Z,100727.28
2022-11-02T16:17:02.617Z,100745.13
2022-11-02T16:19:30.578Z,100731.63
2022-11-02T16:22:01.678Z,100744.09
2022-11-02T16:24:30.065Z,100738.69
2022-11-02T16:26:58.094Z,100735.97
2022-11-02T16:29:31.194Z,100746.78
2022-11-02T16:31:59.174Z,100748.47
2022-11-02T16:34:29.238Z,100753.03
2022-11-02T16:36:57.838Z,100759.28
2022-11-02T16:39:29.582Z,100758.22
2022-11-02T16:41:58.611Z,100765.50
2022-11-02T16:44:28.030Z,100760.09
2022-11-02T16:46:57.741Z,100766.31
2022-11-02T16:49:26.652Z,100762.78
2022-11-02T16:51:55.342Z,100773.41
2022-11-02T16:54:33.752Z,100770.91
2022-11-02T16:57:08.601Z,100765.50
2022-11-02T16:59:47.194Z,100768.00
2022-11-02T17:02:16.027Z,100771.72
2022-11-02T17:04:45.846Z,100767.38
2022-11-02T17:07:14.665Z,100777.13
2022-11-02T17:09:44.664Z,100773.41
2022-11-02T17:12:15.387Z,100782.53
2022-11-02T17:14:44.425Z,100778.19
2022-11-02T17:17:37.446Z,100778.81
2022-11-02T17:20:24.328Z,100782.53
2022-11-02T17:23:05.779Z,100777.97
2022-11-02T17:25:35.621Z,100779.84
2022-11-02T17:28:05.280Z,100779.84
2022-11-02T17:30:47.071Z,100784.22
2022-11-02T17:33:22.440Z,100782.53
2022-11-02T17:35:50.906Z,100786.06
2022-11-02T17:38:19.714Z,100782.34
2022-11-02T17:40:52.171Z,100790.22
2022-11-02T17:43:20.211Z,100790.44
2022-11-02T17:45:48.150Z,100790.44
2022-11-02T17:48:17.807Z,100786.69
2022-11-02T17:50:45.764Z,100787.50
2022-11-02T17:53:15.142Z,100787.50
2022-11-02T17:55:43.131Z,100793.75
2022-11-02T17:58:14.771Z,100789.19
2022-11-02T18:00:43.525Z,100789.19
2022-11-02T18:03:15.917Z,100793.75
2022-11-02T18:05:48.309Z,100786.50
2022-11-02T18:08:18.923Z,100791.91
2022-11-02T18:10:47.523Z,100783.78
2022-11-02T18:13:19.855Z,100782.75
2022-11-02T18:15:47.853Z,100784.63
2022-11-02T18:18:19.882Z,100782.75
2022-11-02T18:20:47.889Z,100780.88
2022-11-02T18:23:17.852Z,100784.63
2022-11-02T18:25:45.825Z,100780.03
2022-11-02T18:28:14.290Z,100787.09
2022-11-02T18:30:45.698Z,100781.69
2022-11-02T18:33:14.385Z,100789.81
2022-11-02T18:35:44.778Z,100780.88
2022-11-02T18:38:13.145Z,100785.44
2022-11-02T18:40:41.827Z,100781.09
2022-11-02T18:43:10.049Z,100780.03
2022-11-02T18:45:39.133Z,100780.03
2022-11-02T18:48:09.701Z,100776.28
2022-11-02T18:50:38.991Z,100770.88
2022-11-02T18:53:07.092Z,100774.63
2022-11-02T18:55:35.909Z,100769.25
2022-11-02T18:58:04.244Z,100769.25
2022-11-02T19:00:33.062Z,100766.53
2022-11-02T19:03:01.821Z,100776.28
2022-11-02T19:05:49.413Z,100768.00
2022-11-02T19:08:34.619Z,100767.16
2022-11-02T19:11:03.298Z,100770.88
2022-11-02T19:13:31.301Z,100768.19
2022-11-02T19:16:00.991Z,100770.88
2022-11-02T19:18:28.915Z,100772.56
2022-11-02T19:20:59.850Z,100764.47
2022-11-02T19:23:27.782Z,100771.53
2022-11-02T19:25:56.460Z,100772.34
2022-11-02T19:28:24.378Z,100773.19
2022-11-02T19:30:54.966Z,100770.50
2022-11-02T19:33:22.966Z,100776.72
2022-11-02T19:35:57.087Z,100777.56
2022-11-02T19:38:26.461Z,100772.16
2022-11-02T19:41:04.117Z,100778.38
2022-11-02T19:43:32.103Z,100784.59
2022-11-02T19:46:03.986Z,100782.97
2022-11-02T19:48:32.119Z,100781.91
2022-11-02T19:51:07.526Z,100777.34
2022-11-02T19:53:36.992Z,100771.09
2022-11-02T19:56:10.037Z,100772.78
2022-11-02T19:58:38.242Z,100770.06
2022-11-02T20:01:08.932Z,100770.06
2022-11-02T20:03:37.743Z,100769.25
2022-11-02T20:06:07.385Z,100767.38
2022-11-02T20:08:36.823Z,100780.06
2022-11-02T20:11:06.386Z,100781.91
2022-11-02T20:13:35.050Z,100784.59
2022-11-02T20:16:04.989Z,100800.81
2022-11-02T20:18:34.366Z,100798.13
2022-11-02T20:21:06.988Z,100799.78
2022-11-02T20:23:37.219Z,100795.41
2022-11-02T20:26:07.326Z,100797.28
2022-11-02T20:28:37.955Z,100790.00
2022-11-02T20:31:09.409Z,100787.31
2022-11-02T20:33:37.557Z,100792.53
2022-11-02T20:36:09.963Z,100805.19
2022-11-02T20:38:39.334Z,100799.78
2022-11-02T20:41:08.954Z,100800.63
2022-11-02T20:43:36.993Z,100800.63
2022-11-02T20:46:31.632Z,100797.72
2022-11-02T20:48:55.011Z,100803.13
2022-11-02T20:51:25.049Z,100808.53
2022-11-02T20:53:54.458Z,100807.47
2022-11-02T20:56:23.202Z,100819.13
2022-11-02T20:58:55.557Z,100807.47
2022-11-02T21:01:25.455Z,100806.66
2022-11-02T21:03:53.463Z,100807.47
2022-11-02T21:06:23.026Z,100805.84
2022-11-02T21:08:50.995Z,100801.44
2022-11-02T21:11:38.333Z,100801.25
2022-11-02T21:14:06.304Z,100793.34
2022-11-02T21:16:35.770Z,100797.09
2022-11-02T21:19:03.877Z,100791.69
2022-11-02T21:21:32.791Z,100784.59
2022-11-02T21:24:00.992Z,100790.00
2022-11-02T21:26:31.100Z,100797.09
2022-11-02T21:29:01.495Z,100790.88
2022-11-02T21:31:31.107Z,100791.06
2022-11-02T21:33:59.026Z,100787.31
2022-11-02T21:36:28.029Z,100785.66
2022-11-02T21:38:55.966Z,100787.31
2022-11-02T21:41:26.807Z,100790.00
2022-11-02T21:43:56.152Z,100784.59
2022-11-02T21:46:26.164Z,100781.91
2022-11-02T21:48:54.111Z,100790.00
2022-11-02T21:51:23.112Z,100785.47
2022-11-02T21:53:51.388Z,100789.81
2022-11-02T21:56:20.815Z,100779.00
2022-11-02T21:58:48.811Z,100782.75
2022-11-02T22:01:38.835Z,100786.06
2022-11-02T22:04:07.277Z,100787.75
2022-11-02T22:06:40.026Z,100790.44
2022-11-02T22:09:09.882Z,100790.44
2022-11-02T22:11:38.583Z,100784.22
2022-11-02T22:14:06.540Z,100788.75
2022-11-02T22:16:37.304Z,100799.56
2022-11-02T22:19:06.049Z,100799.56
2022-11-02T22:21:35.335Z,100789.00
2022-11-02T22:24:03.369Z,100797.94
2022-11-02T22:26:33.007Z,100803.31
2022-11-02T22:29:01.336Z,100805.84
2022-11-02T22:31:30.725Z,100808.72
2022-11-02T22:34:01.307Z,100815.78
2022-11-02T22:36:30.681Z,100816.84
2022-11-02T22:38:58.339Z,100813.94
2022-11-02T22:41:27.688Z,100813.31
2022-11-02T22:43:56.270Z,100807.91
2022-11-02T22:46:24.599Z,100819.53
2022-11-02T22:48:53.355Z,100813.31
2022-11-02T22:51:23.454Z,100810.59
2022-11-02T22:53:51.958Z,100808.72
2022-11-02T22:56:20.921Z,100807.91
2022-11-02T22:58:49.429Z,100805.84
2022-11-02T23:01:20.690Z,100811.22
2022-11-02T23:03:48.821Z,100813.94
2022-11-02T23:06:16.867Z,100818.28
2022-11-02T23:08:46.652Z,100821.81
2022-11-02T23:11:23.289Z,100816.41
2022-11-02T23:13:53.048Z,100824.53
2022-11-02T23:16:24.196Z,100829.94
2022-11-02T23:19:11.289Z,100819.13
2022-11-02T23:21:39.284Z,100826.41
2022-11-02T23:24:26.603Z,100818.28
2022-11-02T23:26:54.671Z,100815.78
2022-11-02T23:29:39.856Z,100820.38
2022-11-02T23:32:25.381Z,100822.88
2022-11-02T23:35:10.714Z,100818.28
2022-11-02T23:37:38.663Z,100814.97
2022-11-02T23:40:09.343Z,100818.47
2022-11-02T23:42:37.334Z,100813.09
2022-11-02T23:45:05.642Z,100813.94
2022-11-02T23:47:51.308Z,100817.66
2022-11-02T23:50:40.158Z,100812.06
2022-11-02T23:53:25.673Z,100811.22
2022-11-02T23:56:12.950Z,100814.75
2022-11-02T23:58:40.895Z,100823.88
